Time;durP1;ratioP1;P1;durP2;ratioP2;P2;SDS_P1;SDS_P2;PMS_P1;PMS_P2;Temp;Humidity;BMP_temperature;BMP_pressure;BME280_temperature;BME280_humidity;BME280_pressure;Samples;Min_cycle;Max_cycle;Signal;HPM_P1;HPM_P2
2022/12/17 13:06:08;;;;;;;52.80;22.25;;;;;;;;;;4995040;28;20420;-76
2022/12/17 13:08:34;;;;;;;54.97;22.67;;;;;;;;;;4994910;28;20026;-76
2022/12/17 13:11:20;;;;;;;47.85;20.95;;;;;;;;;;4994736;28;20022;-76
2022/12/17 13:13:54;;;;;;;52.25;22.58;;;;;;;;;;4994556;28;20030;-76
2022/12/17 13:16:39;;;;;;;52.83;22.52;;;;;;;;;;4994979;28;20054;-76
2022/12/17 13:19:25;;;;;;;52.13;22.05;;;;;;;;;;4975013;28;20088;-76
2022/12/17 13:21:51;;;;;;;52.25;21.75;;;;;;;;;;4986305;28;20026;-76
2022/12/17 13:24:26;;;;;;;53.20;23.13;;;;;;;;;;4981804;28;20161;-76
2022/12/17 13:26:53;;;;;;;55.80;21.70;;;;;;;;;;4994540;28;20023;-76
2022/12/17 13:29:21;;;;;;;48.45;22.35;;;;;;;;;;4994545;28;20022;-76
2022/12/17 13:31:53;;;;;;;56.00;22.33;;;;;;;;;;4994389;28;20141;-76
2022/12/17 13:34:24;;;;;;;48.97;20.65;;;;;;;;;;4975326;28;20031;-76
2022/12/17 13:36:50;;;;;;;50.88;22.77;;;;;;;;;;4975146;28;20446;-76
2022/12/17 13:39:19;;;;;;;51.83;22.35;;;;;;;;;;4991174;28;20492;-75
2022/12/17 13:41:45;;;;;;;52.92;21.20;;;;;;;;;;4993345;28;20014;-75
2022/12/17 13:44:20;;;;;;;49.53;22.55;;;;;;;;;;5011076;28;20112;-75
2022/12/17 13:46:48;;;;;;;50.65;23.38;;;;;;;;;;5013871;28;20564;-75
2022/12/17 13:49:24;;;;;;;51.33;22.60;;;;;;;;;;4995651;28;20062;-74
2022/12/17 13:52:07;;;;;;;51.67;22.52;;;;;;;;;;4994210;28;20027;-75
2022/12/17 13:54:33;;;;;;;49.83;21.92;;;;;;;;;;4994355;28;20077;-75
2022/12/17 13:57:07;;;;;;;55.75;22.17;;;;;;;;;;4993956;28;20019;-75
2022/12/17 13:59:33;;;;;;;52.47;22.30;;;;;;;;;;4994536;28;20034;-75
2022/12/17 14:01:59;;;;;;;56.08;24.45;;;;;;;;;;4994077;28;20058;-75
2022/12/17 14:04:26;;;;;;;55.25;22.42;;;;;;;;;;4994207;28;20058;-75
2022/12/17 14:06:54;;;;;;;56.83;23.85;;;;;;;;;;4994049;28;20106;-75
2022/12/17 14:09:21;;;;;;;61.15;24.55;;;;;;;;;;4994153;28;20069;-75
2022/12/17 14:14:40;;;;;;;58.17;20.85;;;;;;;;;;4975124;28;20082;-75
2022/12/17 14:17:14;;;;;;;56.90;24.50;;;;;;;;;;4974535;28;20558;-75
2022/12/17 14:19:40;;;;;;;59.80;25.45;;;;;;;;;;4982437;28;20089;-75
2022/12/17 14:22:06;;;;;;;57.00;23.45;;;;;;;;;;4993931;28;20026;-74
2022/12/17 14:24:32;;;;;;;53.33;23.60;;;;;;;;;;4988751;28;20362;-74
2022/12/17 14:26:59;;;;;;;53.53;19.70;;;;;;;;;;4983138;28;20026;-74
2022/12/17 14:29:27;;;;;;;65.50;25.88;;;;;;;;;;4993723;28;20041;-75
2022/12/17 14:31:54;;;;;;;60.03;23.60;;;;;;;;;;4993871;28;20030;-74
2022/12/17 14:34:21;;;;;;;60.88;24.25;;;;;;;;;;4993772;28;20022;-74
2022/12/17 14:36:52;;;;;;;54.90;23.85;;;;;;;;;;4993769;28;20023;-74
2022/12/17 14:39:29;;;;;;;57.50;24.20;;;;;;;;;;4993696;28;20041;-74
2022/12/17 14:42:24;;;;;;;54.25;19.60;;;;;;;;;;4993770;28;20076;-74
2022/12/17 14:44:52;;;;;;;59.45;23.70;;;;;;;;;;4993801;28;20030;-74
2022/12/17 14:47:18;;;;;;;46.65;18.48;;;;;;;;;;4976315;28;20026;-75
2022/12/17 14:49:59;;;;;;;55.25;23.20;;;;;;;;;;4992612;28;20705;-74
2022/12/17 14:52:27;;;;;;;59.53;24.13;;;;;;;;;;4994681;28;20080;-75
2022/12/17 14:54:53;;;;;;;55.08;23.60;;;;;;;;;;4997395;28;20088;-74
2022/12/17 14:57:20;;;;;;;61.03;23.85;;;;;;;;;;4997340;28;20050;-75
2022/12/17 14:59:46;;;;;;;60.75;24.10;;;;;;;;;;4997256;28;20038;-74
2022/12/17 15:02:26;;;;;;;56.80;23.23;;;;;;;;;;4997218;28;20072;-74
2022/12/17 15:04:53;;;;;;;52.80;21.83;;;;;;;;;;4997487;28;20026;-74
2022/12/17 15:07:29;;;;;;;58.17;23.65;;;;;;;;;;4997166;28;20105;-74
2022/12/17 15:09:56;;;;;;;54.83;22.40;;;;;;;;;;4997080;28;20033;-74
2022/12/17 15:12:23;;;;;;;57.67;21.50;;;;;;;;;;4997239;28;20033;-74
2022/12/17 15:14:49;;;;;;;60.20;23.55;;;;;;;;;;4996925;28;20022;-76
2022/12/17 15:17:15;;;;;;;59.55;23.48;;;;;;;;;;4997012;28;20022;-76
2022/12/17 15:19:41;;;;;;;53.55;22.50;;;;;;;;;;4996755;28;20093;-76
2022/12/17 15:22:15;;;;;;;55.83;22.70;;;;;;;;;;4996873;28;20043;-76
2022/12/17 15:24:41;;;;;;;64.40;25.23;;;;;;;;;;4996921;28;20022;-75
2022/12/17 15:27:09;;;;;;;45.55;17.85;;;;;;;;;;4996853;28;20428;-75
2022/12/17 15:29:35;;;;;;;53.45;20.90;;;;;;;;;;4996558;28;20026;-75
2022/12/17 15:32:01;;;;;;;62.85;23.20;;;;;;;;;;4996700;28;20473;-76
2022/12/17 15:34:27;;;;;;;58.17;22.00;;;;;;;;;;4996893;28;20014;-75
2022/12/17 15:36:53;;;;;;;62.65;22.30;;;;;;;;;;4996594;28;20109;-75
2022/12/17 15:39:19;;;;;;;63.80;23.52;;;;;;;;;;4992394;28;20095;-75
2022/12/17 15:44:30;;;;;;;58.80;21.88;;;;;;;;;;4983581;28;20489;-75
2022/12/17 15:46:56;;;;;;;55.35;22.40;;;;;;;;;;4977047;28;20023;-75
2022/12/17 15:49:22;;;;;;;58.97;23.45;;;;;;;;;;4991017;28;20056;-75
2022/12/17 15:51:48;;;;;;;56.22;22.23;;;;;;;;;;4996387;28;20030;-75
2022/12/17 15:54:14;;;;;;;59.90;22.13;;;;;;;;;;4996171;28;20442;-75
2022/12/17 15:56:40;;;;;;;49.97;19.13;;;;;;;;;;4996228;28;20110;-75
2022/12/17 15:59:06;;;;;;;65.60;23.52;;;;;;;;;;4996463;28;20446;-75
2022/12/17 16:01:32;;;;;;;61.35;22.80;;;;;;;;;;4996301;28;20018;-75
2022/12/17 16:03:59;;;;;;;56.38;22.30;;;;;;;;;;4995578;28;20064;-75
2022/12/17 16:06:25;;;;;;;63.70;23.75;;;;;;;;;;4996476;28;20426;-75
2022/12/17 16:08:51;;;;;;;58.22;20.83;;;;;;;;;;4995953;28;20050;-75
2022/12/17 16:11:18;;;;;;;54.47;23.10;;;;;;;;;;4991050;28;20027;-75
2022/12/17 16:13:44;;;;;;;65.30;21.80;;;;;;;;;;4993451;28;20028;-76
2022/12/17 16:16:10;;;;;;;65.63;23.10;;;;;;;;;;5001039;28;20022;-76
2022/12/17 16:18:39;;;;;;;55.97;22.25;;;;;;;;;;4988355;28;20042;-75
2022/12/17 16:21:06;;;;;;;64.53;23.23;;;;;;;;;;4995859;28;20057;-75
2022/12/17 16:23:32;;;;;;;64.43;23.52;;;;;;;;;;4983704;28;20086;-75
2022/12/17 16:25:59;;;;;;;58.42;22.92;;;;;;;;;;4999890;28;20045;-75
2022/12/17 16:28:26;;;;;;;63.33;23.88;;;;;;;;;;4996659;28;20027;-75
2022/12/17 16:30:59;;;;;;;52.55;19.65;;;;;;;;;;4995504;28;20478;-75
2022/12/17 16:33:25;;;;;;;64.10;25.08;;;;;;;;;;4976143;28;20022;-75
2022/12/17 16:35:52;;;;;;;67.65;26.05;;;;;;;;;;4978410;28;20485;-75
2022/12/17 16:38:18;;;;;;;65.13;24.85;;;;;;;;;;4993447;28;20113;-75
2022/12/17 16:40:44;;;;;;;64.38;23.75;;;;;;;;;;4995667;28;20034;-75
2022/12/17 16:43:10;;;;;;;64.57;22.98;;;;;;;;;;4996283;28;20568;-75
2022/12/17 16:45:45;;;;;;;71.30;23.60;;;;;;;;;;4995335;28;20027;-75
2022/12/17 16:48:11;;;;;;;59.10;22.00;;;;;;;;;;4998138;28;20102;-75
2022/12/17 16:50:37;;;;;;;65.25;24.50;;;;;;;;;;4987510;28;20054;-75
2022/12/17 16:53:03;;;;;;;69.63;25.35;;;;;;;;;;4995944;28;20026;-75
2022/12/17 16:55:29;;;;;;;56.13;21.42;;;;;;;;;;4993158;28;20033;-75
2022/12/17 16:57:55;;;;;;;68.97;23.83;;;;;;;;;;4975458;28;20109;-75
2022/12/17 17:00:21;;;;;;;63.08;23.15;;;;;;;;;;4975429;28;20474;-75
2022/12/17 17:02:47;;;;;;;60.40;23.77;;;;;;;;;;4975671;28;20030;-75
2022/12/17 17:05:13;;;;;;;66.90;24.23;;;;;;;;;;4975753;28;20074;-76
2022/12/17 17:07:39;;;;;;;67.60;25.02;;;;;;;;;;4976303;28;20466;-75
2022/12/17 17:10:05;;;;;;;73.10;25.65;;;;;;;;;;4985836;28;20046;-76
2022/12/17 17:12:32;;;;;;;64.65;24.02;;;;;;;;;;4994909;28;20069;-75
2022/12/17 17:14:58;;;;;;;66.35;24.35;;;;;;;;;;4994758;28;20210;-75
2022/12/17 17:17:23;;;;;;;60.72;24.63;;;;;;;;;;4989518;28;20409;-75
2022/12/17 17:19:49;;;;;;;60.05;23.77;;;;;;;;;;4974971;28;20027;-75
2022/12/17 17:22:15;;;;;;;66.45;24.63;;;;;;;;;;4975271;28;20049;-75
2022/12/17 17:24:41;;;;;;;68.55;25.10;;;;;;;;;;4975634;28;20110;-75
2022/12/17 17:27:07;;;;;;;71.70;25.58;;;;;;;;;;4976702;28;20362;-75
2022/12/17 17:29:33;;;;;;;68.32;25.88;;;;;;;;;;4976081;28;20030;-76
2022/12/17 17:31:59;;;;;;;64.45;22.65;;;;;;;;;;4975314;28;20050;-76
2022/12/17 17:34:25;;;;;;;74.88;26.77;;;;;;;;;;4975328;28;20051;-75
2022/12/17 17:36:51;;;;;;;66.70;25.40;;;;;;;;;;4975389;28;20034;-75
2022/12/17 17:39:17;;;;;;;69.55;25.02;;;;;;;;;;4974946;28;20027;-75
2022/12/17 17:41:43;;;;;;;66.63;24.45;;;;;;;;;;4974897;28;20426;-75
2022/12/17 17:44:13;;;;;;;71.82;26.33;;;;;;;;;;4975140;28;20019;-76
2022/12/17 17:46:39;;;;;;;72.45;25.13;;;;;;;;;;4974996;28;20470;-75
2022/12/17 17:49:06;;;;;;;68.68;25.00;;;;;;;;;;4975035;28;20077;-76
2022/12/17 17:51:33;;;;;;;62.95;25.63;;;;;;;;;;4974955;28;20046;-76
2022/12/17 17:54:00;;;;;;;67.20;24.42;;;;;;;;;;4974895;28;20023;-75
2022/12/17 17:56:32;;;;;;;67.88;25.33;;;;;;;;;;4974852;28;20031;-75
2022/12/17 17:59:00;;;;;;;67.05;22.90;;;;;;;;;;4974674;28;20051;-75
2022/12/17 18:01:27;;;;;;;59.70;23.80;;;;;;;;;;4974789;28;20106;-75
2022/12/17 18:03:54;;;;;;;62.00;23.50;;;;;;;;;;4957519;28;20031;-75
2022/12/17 18:06:20;;;;;;;68.38;24.00;;;;;;;;;;4974731;28;20072;-76
2022/12/17 18:08:46;;;;;;;66.22;24.15;;;;;;;;;;4974881;28;20113;-76
2022/12/17 18:11:14;;;;;;;65.13;25.25;;;;;;;;;;4974645;28;20027;-76
2022/12/17 18:13:55;;;;;;;65.47;24.27;;;;;;;;;;4974066;28;20069;-75
2022/12/17 18:16:21;;;;;;;68.85;24.65;;;;;;;;;;4973609;28;20586;-75
2022/12/17 18:18:47;;;;;;;67.70;24.08;;;;;;;;;;4974593;28;20118;-76
2022/12/17 18:21:15;;;;;;;72.28;24.65;;;;;;;;;;4974696;28;20023;-75
2022/12/17 18:23:42;;;;;;;69.22;24.55;;;;;;;;;;4974711;28;20030;-75
2022/12/17 18:26:09;;;;;;;64.43;23.30;;;;;;;;;;4974669;28;20019;-75
2022/12/17 18:28:36;;;;;;;61.10;22.08;;;;;;;;;;4977576;28;20050;-75
2022/12/17 18:31:06;;;;;;;50.60;19.02;;;;;;;;;;4978654;28;20026;-76
2022/12/17 18:33:32;;;;;;;66.93;23.73;;;;;;;;;;4978711;28;20019;-76
2022/12/17 18:35:58;;;;;;;51.90;18.95;;;;;;;;;;4978800;28;20031;-76
2022/12/17 18:38:24;;;;;;;58.50;23.20;;;;;;;;;;4978393;28;20031;-76
2022/12/17 18:40:50;;;;;;;65.13;22.00;;;;;;;;;;4977970;28;20512;-75
2022/12/17 18:43:23;;;;;;;60.72;22.85;;;;;;;;;;4978061;28;20051;-75
2022/12/17 18:45:50;;;;;;;68.55;23.42;;;;;;;;;;4978312;28;20037;-75
2022/12/17 18:48:16;;;;;;;68.93;25.05;;;;;;;;;;4978238;28;20447;-75
2022/12/17 18:50:42;;;;;;;62.70;23.95;;;;;;;;;;4978440;28;20027;-75
2022/12/17 18:53:08;;;;;;;67.35;24.08;;;;;;;;;;4978057;28;20081;-75
2022/12/17 18:55:39;;;;;;;65.40;23.90;;;;;;;;;;4977996;28;20358;-75
2022/12/17 18:58:05;;;;;;;68.63;23.95;;;;;;;;;;4977552;28;20047;-75
2022/12/17 19:00:31;;;;;;;72.40;24.80;;;;;;;;;;4977974;28;20085;-75
2022/12/17 19:02:57;;;;;;;65.40;24.45;;;;;;;;;;4977888;28;20470;-75
2022/12/17 19:05:23;;;;;;;67.03;24.20;;;;;;;;;;4978001;28;20077;-76
2022/12/17 19:07:49;;;;;;;64.05;23.40;;;;;;;;;;4977767;28;20027;-75
2022/12/17 19:10:15;;;;;;;71.22;24.20;;;;;;;;;;4977872;28;20043;-76
2022/12/17 19:12:41;;;;;;;56.40;20.08;;;;;;;;;;4977559;28;20089;-75
2022/12/17 19:15:07;;;;;;;71.60;24.00;;;;;;;;;;4977684;28;20098;-76
2022/12/17 19:17:33;;;;;;;68.75;23.58;;;;;;;;;;4977590;28;20027;-75
2022/12/17 19:19:59;;;;;;;63.17;24.90;;;;;;;;;;4977674;28;20111;-76
2022/12/17 19:22:25;;;;;;;66.00;23.63;;;;;;;;;;4977484;28;20537;-76
2022/12/17 19:24:51;;;;;;;70.55;23.50;;;;;;;;;;4977284;28;20034;-76
2022/12/17 19:27:17;;;;;;;69.53;24.83;;;;;;;;;;4977576;28;20035;-76
2022/12/17 19:29:43;;;;;;;71.03;25.13;;;;;;;;;;4977452;28;20077;-76
2022/12/17 19:32:09;;;;;;;68.35;25.95;;;;;;;;;;4977484;28;20058;-76
2022/12/17 19:34:35;;;;;;;75.88;27.13;;;;;;;;;;4977384;28;20026;-76
2022/12/17 19:37:01;;;;;;;64.40;23.40;;;;;;;;;;4977485;28;20023;-76
2022/12/17 19:39:27;;;;;;;68.88;25.25;;;;;;;;;;4976000;28;20037;-76
2022/12/17 19:41:53;;;;;;;69.90;25.67;;;;;;;;;;4977270;28;20106;-76
2022/12/17 19:44:19;;;;;;;65.50;25.00;;;;;;;;;;4977173;28;20443;-76
2022/12/17 19:46:45;;;;;;;66.60;24.30;;;;;;;;;;4977562;28;20019;-76
2022/12/17 19:49:12;;;;;;;68.80;24.58;;;;;;;;;;4977097;28;20023;-76
2022/12/17 19:51:39;;;;;;;61.47;23.48;;;;;;;;;;4977064;28;20034;-76
2022/12/17 19:54:05;;;;;;;66.20;23.17;;;;;;;;;;4977300;28;20066;-76
2022/12/17 19:56:32;;;;;;;67.85;25.02;;;;;;;;;;4977061;28;20110;-76
2022/12/17 19:59:00;;;;;;;71.10;24.48;;;;;;;;;;4976649;28;20201;-75
2022/12/17 20:01:37;;;;;;;70.18;25.58;;;;;;;;;;4977475;28;20022;-75
2022/12/17 20:04:03;;;;;;;70.28;23.67;;;;;;;;;;4976898;28;20026;-76
2022/12/17 20:06:31;;;;;;;68.40;24.13;;;;;;;;;;4976981;28;20027;-76
2022/12/17 20:08:57;;;;;;;65.35;24.67;;;;;;;;;;4976716;28;20027;-76
2022/12/17 20:11:32;;;;;;;56.17;22.00;;;;;;;;;;4976774;28;20031;-76
2022/12/17 20:14:01;;;;;;;68.60;23.85;;;;;;;;;;4976726;28;20106;-75
2022/12/17 20:16:28;;;;;;;67.10;24.73;;;;;;;;;;4976697;28;20022;-76
2022/12/17 20:18:54;;;;;;;71.45;23.95;;;;;;;;;;4976412;28;20031;-76
2022/12/17 20:21:20;;;;;;;65.45;23.65;;;;;;;;;;4976685;28;20106;-76
2022/12/17 20:23:49;;;;;;;71.68;25.42;;;;;;;;;;4976534;28;20093;-76
2022/12/17 20:26:18;;;;;;;67.25;22.95;;;;;;;;;;4976569;28;20102;-76
2022/12/17 20:28:44;;;;;;;72.57;24.23;;;;;;;;;;4976371;28;20466;-76
2022/12/17 20:31:11;;;;;;;68.72;24.70;;;;;;;;;;4976315;28;20525;-76
2022/12/17 20:33:37;;;;;;;71.22;25.13;;;;;;;;;;4976226;28;20663;-76
2022/12/17 20:36:13;;;;;;;63.58;21.92;;;;;;;;;;4959075;28;20074;-76
2022/12/17 20:38:40;;;;;;;70.13;22.60;;;;;;;;;;4976204;28;20126;-76
2022/12/17 20:41:14;;;;;;;70.10;25.10;;;;;;;;;;4976050;28;20079;-76
2022/12/17 20:43:40;;;;;;;56.63;20.63;;;;;;;;;;4975972;28;20031;-76
2022/12/17 20:46:08;;;;;;;64.88;22.55;;;;;;;;;;4976260;28;20061;-76
2022/12/17 20:48:34;;;;;;;65.75;22.67;;;;;;;;;;4976353;28;20035;-76
2022/12/17 20:51:04;;;;;;;64.32;23.17;;;;;;;;;;4975690;28;20038;-76
2022/12/17 20:53:30;;;;;;;61.83;23.40;;;;;;;;;;4976110;28;20494;-76
2022/12/17 20:56:00;;;;;;;66.15;23.17;;;;;;;;;;4975856;28;20532;-76
2022/12/17 20:58:26;;;;;;;70.50;23.98;;;;;;;;;;4975399;28;20421;-76
2022/12/17 21:00:52;;;;;;;66.85;24.25;;;;;;;;;;4975991;28;20034;-76
2022/12/17 21:03:19;;;;;;;71.93;25.92;;;;;;;;;;4975830;28;20497;-77
2022/12/17 21:05:45;;;;;;;65.25;24.02;;;;;;;;;;4975632;28;20023;-77
2022/12/17 21:08:11;;;;;;;72.50;24.85;;;;;;;;;;4975650;28;20023;-77
2022/12/17 21:10:37;;;;;;;65.40;24.73;;;;;;;;;;4975706;28;20026;-76
2022/12/17 21:15:51;;;;;;;59.10;18.75;;;;;;;;;;4975605;28;20053;-76
2022/12/17 21:18:17;;;;;;;64.03;23.80;;;;;;;;;;4975469;28;20030;-76
2022/12/17 21:20:43;;;;;;;67.57;21.25;;;;;;;;;;4975578;28;20031;-76
2022/12/17 21:23:10;;;;;;;64.93;23.02;;;;;;;;;;4975492;28;20030;-76
2022/12/17 21:25:37;;;;;;;64.60;22.88;;;;;;;;;;4975626;28;20058;-76
2022/12/17 21:28:03;;;;;;;53.88;19.25;;;;;;;;;;4975616;28;20050;-76
2022/12/17 21:30:29;;;;;;;62.42;22.65;;;;;;;;;;4975267;28;20030;-77
2022/12/17 21:32:55;;;;;;;64.43;23.52;;;;;;;;;;4975384;28;20073;-77
2022/12/17 21:35:21;;;;;;;70.95;21.55;;;;;;;;;;4975171;28;20023;-77
2022/12/17 21:37:47;;;;;;;62.22;21.02;;;;;;;;;;4975304;28;20438;-77
2022/12/17 21:40:13;;;;;;;60.75;22.30;;;;;;;;;;4974855;28;20038;-76
2022/12/17 21:45:23;;;;;;;58.00;20.85;;;;;;;;;;4975184;28;20038;-76
2022/12/17 21:47:49;;;;;;;59.78;21.77;;;;;;;;;;4975161;28;20027;-76
2022/12/17 21:50:15;;;;;;;55.00;19.02;;;;;;;;;;4974959;28;20441;-76
2022/12/17 21:52:41;;;;;;;59.45;20.85;;;;;;;;;;4975194;28;20019;-76
2022/12/17 21:55:07;;;;;;;56.80;19.58;;;;;;;;;;4975030;28;20037;-76
2022/12/17 21:57:34;;;;;;;51.28;18.25;;;;;;;;;;4974785;28;20043;-76
2022/12/17 22:00:03;;;;;;;55.20;18.80;;;;;;;;;;4974737;28;20031;-76
2022/12/17 22:02:29;;;;;;;60.50;20.83;;;;;;;;;;4974244;28;20089;-76
2022/12/17 22:04:55;;;;;;;59.85;21.38;;;;;;;;;;4975156;28;20027;-76
2022/12/17 22:07:21;;;;;;;64.38;22.95;;;;;;;;;;4974934;28;20051;-76
2022/12/17 22:09:47;;;;;;;59.97;21.50;;;;;;;;;;4974909;28;20082;-76
2022/12/17 22:14:57;;;;;;;61.47;20.67;;;;;;;;;;4974764;28;20122;-76
2022/12/17 22:17:23;;;;;;;64.88;22.35;;;;;;;;;;4974579;28;20102;-76
2022/12/17 22:19:49;;;;;;;63.90;23.48;;;;;;;;;;4974711;28;20038;-76
2022/12/17 22:22:15;;;;;;;59.13;21.40;;;;;;;;;;4974733;28;20526;-76
2022/12/17 22:24:41;;;;;;;58.13;21.50;;;;;;;;;;4974756;28;20073;-76
2022/12/17 22:27:07;;;;;;;70.80;24.13;;;;;;;;;;4974651;28;20022;-76
2022/12/17 22:35:02;;;;;;;61.25;21.35;;;;;;;;;;4974536;28;20126;-76
2022/12/17 22:37:28;;;;;;;58.92;19.10;;;;;;;;;;4974482;28;20105;-76
2022/12/17 22:39:54;;;;;;;59.88;21.17;;;;;;;;;;4974479;28;20414;-76
2022/12/17 22:45:05;;;;;;;63.40;21.42;;;;;;;;;;4974683;28;20042;-76
2022/12/17 22:47:31;;;;;;;66.47;23.63;;;;;;;;;;4974380;28;20046;-76
2022/12/17 22:49:57;;;;;;;53.47;20.73;;;;;;;;;;4974462;28;20088;-76
2022/12/17 22:52:23;;;;;;;68.55;23.10;;;;;;;;;;4974331;28;20027;-76
2022/12/17 22:54:49;;;;;;;71.05;23.20;;;;;;;;;;4974415;28;20042;-76
2022/12/17 22:57:15;;;;;;;67.25;24.20;;;;;;;;;;4973976;28;20058;-76
2022/12/17 22:59:41;;;;;;;63.97;20.58;;;;;;;;;;4974796;28;20030;-76
2022/12/17 23:02:09;;;;;;;75.05;24.92;;;;;;;;;;4974226;28;20065;-76
2022/12/17 23:04:35;;;;;;;65.60;21.80;;;;;;;;;;4974687;28;20469;-76
2022/12/17 23:07:01;;;;;;;76.05;24.00;;;;;;;;;;4974786;28;20037;-76
2022/12/17 23:09:27;;;;;;;63.75;23.63;;;;;;;;;;4974535;28;20027;-76
2022/12/17 23:11:53;;;;;;;63.08;24.08;;;;;;;;;;4974319;28;20030;-76
2022/12/17 23:14:19;;;;;;;52.38;20.10;;;;;;;;;;4976456;28;20086;-76
2022/12/17 23:16:45;;;;;;;58.42;21.48;;;;;;;;;;4977783;28;20030;-76
2022/12/17 23:19:11;;;;;;;67.10;22.95;;;;;;;;;;4977694;28;20101;-76
2022/12/17 23:21:37;;;;;;;62.10;22.20;;;;;;;;;;4977645;28;20031;-76
2022/12/17 23:24:04;;;;;;;65.47;21.35;;;;;;;;;;4977848;28;20381;-76
2022/12/17 23:26:31;;;;;;;67.80;24.15;;;;;;;;;;4977621;28;20454;-76
2022/12/17 23:29:00;;;;;;;48.40;16.80;;;;;;;;;;4977542;28;20034;-76
2022/12/17 23:31:27;;;;;;;68.97;24.63;;;;;;;;;;4977565;28;20469;-77
2022/12/17 23:33:53;;;;;;;58.85;21.85;;;;;;;;;;4977501;28;20023;-76
2022/12/17 23:36:20;;;;;;;65.25;23.27;;;;;;;;;;4977563;28;20080;-76
2022/12/17 23:38:47;;;;;;;68.03;23.30;;;;;;;;;;4977261;28;20038;-76
2022/12/17 23:41:14;;;;;;;68.55;23.38;;;;;;;;;;4977337;28;20557;-76
2022/12/17 23:43:40;;;;;;;51.80;18.88;;;;;;;;;;4977330;28;20451;-76
2022/12/17 23:46:07;;;;;;;64.28;21.92;;;;;;;;;;4977368;28;20038;-76
2022/12/17 23:48:34;;;;;;;69.22;23.70;;;;;;;;;;4977152;28;20022;-76
2022/12/17 23:51:01;;;;;;;65.68;22.02;;;;;;;;;;4977103;28;20378;-76
2022/12/17 23:53:27;;;;;;;73.57;25.70;;;;;;;;;;4976999;28;20034;-76
2022/12/17 23:55:53;;;;;;;60.05;21.90;;;;;;;;;;4976978;28;20051;-76
2022/12/17 23:58:20;;;;;;;72.63;25.02;;;;;;;;;;4976671;28;20101;-76
